Terminal Aerodrome Forecast
Issued by NWS Duluth, MN

Home | Current Version | Previous Version | Text Only | Print | Product List | Glossary On
Versions: 1 2 3 4 5 6 7 8 9 10 11 12 13 14 15 16 17 18 19 20 21
987
FTUS43 KDLH 240813 AAD
TAFDLH
TAF AMD
KDLH 240813Z 2408/2506 03006KT P6SM BKN035 OVC050
     FM241200 05004KT 6SM BR SCT015 BKN040
     FM241400 07007KT P6SM SCT008 BKN050
     FM241800 09011KT P6SM SCT050=

USA.gov is the U.S. government's official web portal to all federal, state and local government web resources and services.